createdAt,value
2018-01-05T00:02:08.551Z,89.50
2018-01-05T00:04:36.749Z,89.30
2018-01-05T00:07:05.001Z,87.90
2018-01-05T00:09:33.179Z,89.70
2018-01-05T00:12:01.349Z,86.80
2018-01-05T00:14:29.506Z,85.30
2018-01-05T00:16:57.717Z,86.40
2018-01-05T00:19:25.872Z,87.40
2018-01-05T00:21:54.045Z,83.80
2018-01-05T00:24:22.214Z,83.50
2018-01-05T00:26:51.231Z,83.10
2018-01-05T00:29:19.473Z,83.20
2018-01-05T00:31:47.652Z,83.10
2018-01-05T00:34:15.789Z,83.10
2018-01-05T00:36:44.750Z,82.50
2018-01-05T00:39:12.893Z,82.40
2018-01-05T00:41:41.068Z,84.20
2018-01-05T00:44:09.213Z,82.50
2018-01-05T00:46:37.411Z,83.30
2018-01-05T00:49:05.597Z,83.80
2018-01-05T00:51:33.802Z,83.60
2018-01-05T00:54:01.941Z,83.10
2018-01-05T00:56:30.101Z,82.40
2018-01-05T00:58:58.241Z,82.00
2018-01-05T01:01:26.430Z,83.30
2018-01-05T01:03:54.631Z,84.30
2018-01-05T01:06:22.794Z,82.80
2018-01-05T01:08:50.957Z,80.90
2018-01-05T01:11:19.898Z,82.40
2018-01-05T01:13:48.041Z,82.40
2018-01-05T01:16:16.219Z,82.40
2018-01-05T01:18:44.364Z,82.40
2018-01-05T01:21:13.375Z,82.10
2018-01-05T01:23:41.537Z,82.10
2018-01-05T01:26:10.496Z,81.90
2018-01-05T01:28:38.649Z,82.00
2018-01-05T01:31:07.009Z,80.60
2018-01-05T01:33:35.184Z,80.20
2018-01-05T01:36:03.389Z,81.40
2018-01-05T01:38:31.537Z,80.50
2018-01-05T01:40:59.735Z,80.10
2018-01-05T01:43:27.939Z,81.10
2018-01-05T01:45:56.880Z,80.70
2018-01-05T01:48:25.036Z,80.60
2018-01-05T01:50:53.226Z,80.60
2018-01-05T01:53:21.400Z,80.50
2018-01-05T01:55:49.588Z,80.40
2018-01-05T01:58:17.777Z,81.10
2018-01-05T02:00:45.950Z,76.80
2018-01-05T02:03:14.131Z,76.20
2018-01-05T02:05:42.308Z,78.50
2018-01-05T02:08:10.460Z,82.10
2018-01-05T02:10:38.668Z,80.20
2018-01-05T02:13:07.588Z,78.30
2018-01-05T02:15:35.766Z,78.40
2018-01-05T02:18:03.933Z,77.90
2018-01-05T02:20:32.106Z,77.60
2018-01-05T02:23:01.104Z,77.40
2018-01-05T02:25:29.530Z,77.40
2018-01-05T02:27:57.674Z,76.60
2018-01-05T02:30:25.890Z,78.80
2018-01-05T02:32:54.058Z,77.70
2018-01-05T02:35:22.227Z,75.20
2018-01-05T02:37:50.407Z,75.10
2018-01-05T02:40:18.592Z,76.60
2018-01-05T02:42:46.753Z,76.20
2018-01-05T02:45:15.707Z,76.50
2018-01-05T02:47:43.903Z,76.60
2018-01-05T02:50:12.072Z,78.30
2018-01-05T02:52:40.283Z,79.40
2018-01-05T02:55:08.463Z,76.60
2018-01-05T02:57:37.429Z,78.00
2018-01-05T03:00:05.588Z,77.50
2018-01-05T03:02:37.680Z,76.80
2018-01-05T03:05:05.842Z,76.00
2018-01-05T03:07:34.045Z,76.00
2018-01-05T03:10:02.222Z,77.30
2018-01-05T03:12:31.183Z,75.80
2018-01-05T03:14:59.333Z,75.80
2018-01-05T03:17:27.521Z,75.90
2018-01-05T03:19:55.673Z,75.10
2018-01-05T03:22:23.868Z,74.50
2018-01-05T03:24:52.017Z,78.10
2018-01-05T03:27:20.202Z,77.00
2018-01-05T03:29:48.358Z,77.40
2018-01-05T03:32:16.527Z,79.30
2018-01-05T03:34:44.677Z,78.80
2018-01-05T03:37:13.629Z,78.40
2018-01-05T03:39:41.770Z,78.50
2018-01-05T03:42:09.968Z,79.90
2018-01-05T03:44:38.121Z,78.20
2018-01-05T03:47:06.318Z,76.90
2018-01-05T03:49:34.511Z,75.90
2018-01-05T03:52:03.276Z,75.70
2018-01-05T03:54:31.502Z,78.40
2018-01-05T03:56:59.658Z,78.50
2018-01-05T03:59:27.806Z,77.90
2018-01-05T04:01:55.977Z,77.00
2018-01-05T04:04:24.137Z,76.90
2018-01-05T04:06:52.300Z,77.40
2018-01-05T04:09:20.487Z,77.70
2018-01-05T04:11:48.653Z,75.80
2018-01-05T04:14:16.797Z,78.00
2018-01-05T04:16:44.970Z,78.50
2018-01-05T04:19:14.852Z,77.60
2018-01-05T04:21:44.783Z,77.50
2018-01-05T04:24:14.035Z,79.20
2018-01-05T04:26:42.236Z,79.20
2018-01-05T04:29:10.374Z,76.40
2018-01-05T04:31:38.551Z,76.60
2018-01-05T04:34:06.680Z,78.50
2018-01-05T04:36:34.855Z,77.70
2018-01-05T04:39:03.468Z,77.80
2018-01-05T04:41:33.524Z,77.20
2018-01-05T04:44:02.864Z,77.20
2018-01-05T04:46:31.983Z,78.70
2018-01-05T04:49:00.184Z,78.60
2018-01-05T04:51:28.356Z,78.10
2018-01-05T04:53:56.483Z,77.10
2018-01-05T04:56:24.778Z,78.60
2018-01-05T04:58:52.932Z,77.70
2018-01-05T05:01:21.105Z,75.80
2018-01-05T05:03:49.236Z,76.20
2018-01-05T05:06:17.572Z,75.70
2018-01-05T05:08:46.476Z,76.80
2018-01-05T05:11:16.174Z,77.10
2018-01-05T05:13:45.115Z,76.50
2018-01-05T05:16:13.274Z,76.50
2018-01-05T05:18:41.420Z,74.80
2018-01-05T05:21:10.357Z,74.70
2018-01-05T05:23:38.484Z,75.30
2018-01-05T05:26:07.396Z,75.80
2018-01-05T05:28:35.563Z,75.80
2018-01-05T05:31:03.716Z,77.70
2018-01-05T05:33:32.651Z,77.80
2018-01-05T05:36:00.824Z,77.80
2018-01-05T05:38:29.127Z,77.10
2018-01-05T05:40:57.280Z,77.70
2018-01-05T05:43:25.798Z,78.60
2018-01-05T05:45:54.140Z,80.00
2018-01-05T05:48:22.294Z,80.00
2018-01-05T05:50:50.413Z,79.20
2018-01-05T05:53:18.576Z,78.30
2018-01-05T05:55:46.760Z,80.70
2018-01-05T05:58:14.971Z,81.70
2018-01-05T06:00:43.893Z,80.20
2018-01-05T06:03:12.059Z,80.10
2018-01-05T06:05:40.249Z,80.70
2018-01-05T06:08:08.413Z,80.40
2018-01-05T06:10:37.526Z,82.10
2018-01-05T06:13:05.898Z,82.10
2018-01-05T06:15:34.041Z,78.90
2018-01-05T06:18:03.424Z,78.60
2018-01-05T06:20:31.700Z,78.60
2018-01-05T06:22:59.891Z,79.00
2018-01-05T06:25:28.787Z,81.20
2018-01-05T06:27:57.723Z,81.00
2018-01-05T06:30:27.716Z,81.00
2018-01-05T06:32:56.658Z,81.60
2018-01-05T06:35:29.187Z,82.60
2018-01-05T06:38:00.116Z,82.30
2018-01-05T06:40:34.851Z,81.70
2018-01-05T06:43:12.218Z,82.20
2018-01-05T06:45:42.380Z,83.00
2018-01-05T06:48:13.717Z,85.70
2018-01-05T06:50:42.192Z,85.50
2018-01-05T06:53:10.922Z,85.60
2018-01-05T06:55:39.150Z,84.60
2018-01-05T06:58:08.076Z,88.40
2018-01-05T07:00:36.226Z,88.40
2018-01-05T07:03:04.675Z,89.30
2018-01-05T07:05:32.845Z,88.90
2018-01-05T07:08:01.068Z,88.80
2018-01-05T07:10:29.445Z,88.80
2018-01-05T07:12:57.608Z,86.20
2018-01-05T07:15:25.745Z,86.70
2018-01-05T07:17:55.820Z,88.00
2018-01-05T07:20:24.858Z,86.70
2018-01-05T07:22:53.024Z,86.60
2018-01-05T07:25:21.258Z,86.10
2018-01-05T07:27:49.426Z,85.80
2018-01-05T07:30:17.571Z,85.50
2018-01-05T07:32:46.506Z,85.80
2018-01-05T07:35:14.681Z,85.80
2018-01-05T07:37:42.857Z,86.60
2018-01-05T07:40:11.003Z,87.40
2018-01-05T07:42:39.924Z,86.80
2018-01-05T07:45:08.119Z,86.80
2018-01-05T07:47:36.328Z,86.40
2018-01-05T07:50:05.263Z,85.20
2018-01-05T07:52:33.433Z,85.10
2018-01-05T07:55:01.585Z,83.90
2018-01-05T07:57:30.714Z,85.20
2018-01-05T07:59:58.876Z,85.10
2018-01-05T08:02:27.063Z,85.70
2018-01-05T08:04:55.240Z,86.70
2018-01-05T08:07:23.413Z,86.60
2018-01-05T08:09:51.558Z,85.90
2018-01-05T08:12:19.733Z,85.60
2018-01-05T08:14:47.881Z,85.20
2018-01-05T08:17:16.837Z,84.20
2018-01-05T08:19:45.002Z,84.20
2018-01-05T08:22:13.217Z,84.20
2018-01-05T08:24:41.353Z,83.60
2018-01-05T08:27:09.573Z,82.70
2018-01-05T08:29:37.701Z,82.60
2018-01-05T08:32:07.638Z,82.50
2018-01-05T08:34:35.790Z,82.50
2018-01-05T08:37:03.951Z,81.40
2018-01-05T08:39:32.888Z,80.60
2018-01-05T08:42:01.067Z,80.70
2018-01-05T08:44:30.117Z,78.90
2018-01-05T08:46:58.260Z,79.00
2018-01-05T08:49:26.468Z,77.30
2018-01-05T08:51:54.598Z,78.60
2018-01-05T08:54:23.519Z,79.30
2018-01-05T08:56:51.654Z,79.30
2018-01-05T08:59:20.586Z,76.50
2018-01-05T09:01:48.745Z,77.50
2018-01-05T09:04:16.930Z,76.10
2018-01-05T09:06:45.067Z,76.30
2018-01-05T09:09:14.012Z,73.70
2018-01-05T09:11:42.163Z,73.60
2018-01-05T09:14:10.318Z,72.70
2018-01-05T09:16:39.295Z,73.50
2018-01-05T09:19:07.693Z,73.50
2018-01-05T09:21:35.961Z,72.60
2018-01-05T09:24:04.185Z,72.90
2018-01-05T09:26:32.675Z,72.10
2018-01-05T09:29:01.402Z,71.40
2018-01-05T09:31:31.089Z,72.10
2018-01-05T09:33:59.325Z,72.20
2018-01-05T09:36:27.487Z,72.40
2018-01-05T09:38:55.753Z,73.70
2018-01-05T09:41:24.774Z,73.00
2018-01-05T09:43:52.966Z,73.00
2018-01-05T09:46:21.113Z,72.80
2018-01-05T09:48:49.298Z,72.60
2018-01-05T09:51:17.456Z,73.40
2018-01-05T09:53:45.642Z,73.10
2018-01-05T09:56:13.964Z,70.60
2018-01-05T09:58:42.246Z,72.00
2018-01-05T10:01:11.212Z,70.70
2018-01-05T10:03:39.390Z,70.70
2018-01-05T10:06:07.552Z,71.00
2018-01-05T10:08:35.715Z,71.70
2018-01-05T10:11:04.833Z,73.00
2018-01-05T10:13:34.298Z,72.80
2018-01-05T10:16:02.469Z,73.40
2018-01-05T10:18:30.662Z,70.60
2018-01-05T10:20:58.820Z,72.10
2018-01-05T10:23:27.016Z,70.10
2018-01-05T10:25:55.166Z,72.40
2018-01-05T10:28:24.535Z,70.60
2018-01-05T10:30:53.455Z,72.30
2018-01-05T10:33:21.632Z,72.30
2018-01-05T10:35:49.803Z,72.10
2018-01-05T10:38:17.974Z,70.40
2018-01-05T10:40:46.121Z,72.60
2018-01-05T10:43:15.308Z,73.00
2018-01-05T10:45:43.455Z,72.90
2018-01-05T10:48:11.619Z,71.20
2018-01-05T10:50:39.781Z,71.00
2018-01-05T10:53:07.956Z,69.40
2018-01-05T10:58:05.542Z,71.70
2018-01-05T11:00:33.870Z,72.40
2018-01-05T11:03:02.038Z,73.40
2018-01-05T11:05:30.194Z,73.50
2018-01-05T11:07:58.376Z,73.50
2018-01-05T11:10:28.959Z,75.30
2018-01-05T11:12:57.141Z,73.60
2018-01-05T11:15:25.304Z,72.60
2018-01-05T11:17:54.212Z,73.40
2018-01-05T11:20:22.393Z,73.20
2018-01-05T11:22:50.565Z,73.30
2018-01-05T11:25:18.716Z,71.80
2018-01-05T11:27:47.613Z,75.60
2018-01-05T11:30:16.528Z,73.60
2018-01-05T11:32:44.663Z,73.60
2018-01-05T11:35:12.829Z,73.90
2018-01-05T11:37:40.971Z,73.20
2018-01-05T11:40:09.204Z,75.40
2018-01-05T11:42:37.377Z,72.80
2018-01-05T11:45:05.560Z,73.50
2018-01-05T11:47:34.454Z,72.60
2018-01-05T11:50:02.616Z,72.70
2018-01-05T11:52:34.529Z,74.40
2018-01-05T11:55:03.203Z,74.40
2018-01-05T11:57:32.174Z,73.60
2018-01-05T12:00:02.302Z,73.40
2018-01-05T12:02:36.055Z,73.50
2018-01-05T12:05:04.264Z,73.30
2018-01-05T12:07:32.442Z,72.00
2018-01-05T12:10:07.274Z,71.90
2018-01-05T12:12:37.116Z,74.20
2018-01-05T12:15:07.176Z,74.50
2018-01-05T12:17:36.616Z,72.20
2018-01-05T12:20:04.769Z,72.20
2018-01-05T12:22:33.676Z,71.60
2018-01-05T12:25:02.026Z,71.60
2018-01-05T12:27:30.324Z,72.00
2018-01-05T12:29:59.256Z,72.50
2018-01-05T12:32:27.404Z,72.50
2018-01-05T12:37:25.060Z,71.40
2018-01-05T12:39:53.995Z,72.90
2018-01-05T12:42:22.532Z,73.00
2018-01-05T12:44:50.836Z,71.10
2018-01-05T12:47:18.969Z,70.30
2018-01-05T12:49:47.137Z,73.40
2018-01-05T12:52:15.290Z,74.10
2018-01-05T12:54:43.457Z,72.90
2018-01-05T12:57:11.608Z,73.40
2018-01-05T12:59:39.780Z,73.00
2018-01-05T13:02:07.916Z,75.30
2018-01-05T13:04:36.081Z,71.10
2018-01-05T13:07:04.231Z,73.80
2018-01-05T13:09:32.388Z,75.20
2018-01-05T13:12:00.519Z,74.50
2018-01-05T13:14:28.675Z,73.80
2018-01-05T13:16:56.822Z,70.80
2018-01-05T13:19:24.992Z,68.90
2018-01-05T13:21:53.124Z,68.00
2018-01-05T13:24:22.037Z,70.50
2018-01-05T13:26:50.164Z,70.60
2018-01-05T13:29:18.319Z,69.80
2018-01-05T13:31:46.479Z,70.30
2018-01-05T13:34:14.675Z,70.50
2018-01-05T13:36:42.833Z,70.00
2018-01-05T13:39:11.007Z,72.10
2018-01-05T13:41:39.164Z,68.80
2018-01-05T13:44:07.358Z,69.20
2018-01-05T13:46:35.556Z,71.60
2018-01-05T13:49:03.710Z,72.60
2018-01-05T13:51:31.874Z,73.60
2018-01-05T13:54:00.048Z,71.00
2018-01-05T13:56:28.196Z,69.60
2018-01-05T13:58:57.145Z,69.20
2018-01-05T14:01:25.326Z,69.30
2018-01-05T14:03:53.494Z,71.40
2018-01-05T14:06:21.674Z,71.40
2018-01-05T14:08:49.819Z,74.00
2018-01-05T14:11:17.982Z,72.60
2018-01-05T14:13:46.148Z,70.80
2018-01-05T14:16:14.346Z,72.50
2018-01-05T14:18:42.499Z,72.10
2018-01-05T14:21:10.671Z,72.70
2018-01-05T14:23:38.809Z,74.60
2018-01-05T14:26:06.972Z,71.90
2018-01-05T14:28:35.912Z,71.90
2018-01-05T14:31:04.566Z,75.10
2018-01-05T14:33:33.910Z,77.40
2018-01-05T14:36:02.065Z,77.40
2018-01-05T14:38:30.230Z,74.70
2018-01-05T14:40:59.177Z,75.70
2018-01-05T14:43:27.323Z,75.60
2018-01-05T14:45:55.468Z,74.90
2018-01-05T14:48:24.373Z,78.50
2018-01-05T14:50:52.525Z,78.40
2018-01-05T14:53:21.461Z,76.60
2018-01-05T14:55:49.625Z,76.60
2018-01-05T14:58:17.760Z,77.70
2018-01-05T15:00:46.016Z,77.90
2018-01-05T15:03:14.164Z,78.40
2018-01-05T15:05:42.332Z,78.50
2018-01-05T15:08:11.261Z,75.70
2018-01-05T15:10:39.450Z,75.70
2018-01-05T15:13:07.577Z,77.30
2018-01-05T15:15:35.748Z,75.20
2018-01-05T15:18:04.513Z,74.40
2018-01-05T15:20:33.026Z,75.50
2018-01-05T15:23:01.157Z,75.20
2018-01-05T15:25:30.266Z,76.10
2018-01-05T15:27:59.730Z,75.70
2018-01-05T15:30:27.872Z,75.80
2018-01-05T15:32:56.000Z,74.90
2018-01-05T15:35:24.953Z,77.70
2018-01-05T15:37:53.078Z,77.70
2018-01-05T15:40:21.255Z,77.80
2018-01-05T15:42:49.392Z,77.80
2018-01-05T15:45:17.624Z,78.50
2018-01-05T15:47:45.747Z,79.80
2018-01-05T15:50:13.896Z,77.90
2018-01-05T15:52:42.028Z,77.40
2018-01-05T15:55:10.195Z,77.80
2018-01-05T15:57:38.396Z,79.80
2018-01-05T16:00:06.542Z,79.30
2018-01-05T16:02:39.308Z,80.20
2018-01-05T16:05:08.253Z,79.80
2018-01-05T16:07:36.387Z,79.60
2018-01-05T16:10:05.300Z,82.20
2018-01-05T16:12:33.449Z,81.50
2018-01-05T16:15:02.364Z,81.70
2018-01-05T16:17:31.255Z,83.50
2018-01-05T16:20:00.182Z,81.80
2018-01-05T16:22:28.315Z,81.90
2018-01-05T16:24:57.236Z,83.10
2018-01-05T16:27:25.359Z,83.10
2018-01-05T16:29:53.549Z,82.60
2018-01-05T16:32:22.485Z,81.50
2018-01-05T16:34:50.633Z,81.60
2018-01-05T16:37:18.794Z,81.20
2018-01-05T16:39:46.989Z,81.10
2018-01-05T16:42:15.146Z,79.90
2018-01-05T16:44:43.469Z,81.40
2018-01-05T16:47:11.644Z,82.60
2018-01-05T16:49:39.837Z,81.50
2018-01-05T16:52:07.992Z,81.10
2018-01-05T16:54:36.150Z,81.70
2018-01-05T16:57:05.479Z,80.80
2018-01-05T16:59:33.607Z,80.80
2018-01-05T17:02:01.764Z,81.20
2018-01-05T17:04:30.661Z,77.90
2018-01-05T17:06:59.577Z,78.60
2018-01-05T17:09:28.485Z,79.70
2018-01-05T17:11:56.827Z,79.80
2018-01-05T17:14:25.028Z,79.60
2018-01-05T17:16:53.197Z,79.90
2018-01-05T17:19:23.022Z,82.30
2018-01-05T17:21:51.211Z,83.80
2018-01-05T17:24:19.473Z,81.80
2018-01-05T17:26:47.832Z,81.80
2018-01-05T17:29:16.093Z,82.50
2018-01-05T17:31:44.481Z,82.50
2018-01-05T17:34:12.622Z,81.20
2018-01-05T17:36:40.823Z,81.60
2018-01-05T17:39:09.503Z,81.30
2018-01-05T17:41:37.661Z,80.80
2018-01-05T17:44:06.587Z,80.00
2018-01-05T17:46:34.802Z,79.90
2018-01-05T17:49:03.503Z,80.00
2018-01-05T17:51:31.797Z,78.60
2018-01-05T17:54:00.697Z,78.90
2018-01-05T17:56:28.852Z,78.80
2018-01-05T17:58:57.856Z,77.30
2018-01-05T18:01:26.785Z,78.20
2018-01-05T18:03:55.071Z,78.20
2018-01-05T18:06:23.230Z,79.80
2018-01-05T18:08:51.355Z,80.50
2018-01-05T18:11:19.593Z,81.70
2018-01-05T18:13:47.737Z,83.20
2018-01-05T18:16:15.897Z,82.30
2018-01-05T18:18:44.183Z,82.40
2018-01-05T18:21:13.116Z,82.80
2018-01-05T18:23:41.485Z,82.80
2018-01-05T18:26:09.657Z,82.60
2018-01-05T18:28:37.802Z,80.90
2018-01-05T18:31:06.983Z,81.50
2018-01-05T18:33:36.405Z,80.10
2018-01-05T18:36:04.690Z,80.10
2018-01-05T18:38:33.040Z,79.80
2018-01-05T18:41:02.011Z,81.40
2018-01-05T18:43:30.164Z,81.40
2018-01-05T18:45:58.328Z,80.00
2018-01-05T18:48:26.525Z,81.20
2018-01-05T18:50:54.692Z,82.20
2018-01-05T18:53:22.939Z,80.10
2018-01-05T18:55:51.232Z,79.60
2018-01-05T18:58:19.376Z,81.10
2018-01-05T19:00:47.725Z,80.50
2018-01-05T19:03:15.860Z,79.70
2018-01-05T19:05:44.035Z,79.20
2018-01-05T19:08:12.207Z,79.40
2018-01-05T19:10:40.420Z,78.70
2018-01-05T19:13:08.560Z,78.30
2018-01-05T19:15:36.837Z,79.30
2018-01-05T19:18:05.145Z,79.80
2018-01-05T19:20:33.347Z,80.30
2018-01-05T19:23:01.628Z,80.20
2018-01-05T19:25:29.987Z,80.40
2018-01-05T19:27:58.993Z,81.50
2018-01-05T19:30:27.917Z,81.50
2018-01-05T19:32:56.567Z,81.50
2018-01-05T19:35:24.719Z,81.70
2018-01-05T19:37:52.918Z,82.40
2018-01-05T19:40:21.582Z,82.50
2018-01-05T19:42:49.831Z,83.60
2018-01-05T19:45:17.964Z,83.60
2018-01-05T19:47:46.971Z,84.90
2018-01-05T19:50:15.132Z,84.80
2018-01-05T19:52:43.332Z,84.40
2018-01-05T19:55:11.533Z,84.60
2018-01-05T19:57:40.012Z,84.60
2018-01-05T20:00:08.308Z,85.70
2018-01-05T20:02:38.189Z,86.00
2018-01-05T20:05:06.447Z,85.70
2018-01-05T20:07:34.668Z,85.50
2018-01-05T20:10:04.636Z,85.50
2018-01-05T20:12:32.797Z,86.60
2018-01-05T20:15:01.666Z,87.00
2018-01-05T20:17:30.376Z,87.10
2018-01-05T20:19:58.722Z,87.60
2018-01-05T20:22:31.816Z,88.70
2018-01-05T20:24:59.936Z,88.70
2018-01-05T20:27:28.110Z,88.50
2018-01-05T20:29:56.241Z,88.90
2018-01-05T20:32:24.632Z,88.50
